Time;durP1;ratioP1;P1;durP2;ratioP2;P2;SDS_P1;SDS_P2;PMS_P1;PMS_P2;Temp;Humidity;BMP_temperature;BMP_pressure;BME280_temperature;BME280_humidity;BME280_pressure;Samples;Min_cycle;Max_cycle;Signal;HPM_P1;HPM_P2
2024/03/27 00:00:18;;;;;;;3.50;1.70;;;;;;;13.33;50.74;101550.34;106891;1267;25353;-55
2024/03/27 00:02:46;;;;;;;2.00;1.70;;;;;;;13.33;50.72;101549.98;107115;1250;25347;-55
2024/03/27 00:05:14;;;;;;;3.70;1.80;;;;;;;13.33;50.73;101545.11;107133;1254;25497;-55
2024/03/27 00:07:42;;;;;;;2.10;1.90;;;;;;;13.33;50.75;101544.58;107100;1263;25369;-55
2024/03/27 00:10:09;;;;;;;4.30;1.90;;;;;;;13.34;50.71;101535.16;107167;1261;25347;-55
2024/03/27 00:12:36;;;;;;;4.00;1.90;;;;;;;13.32;50.78;101531.69;107089;1260;24279;-55
2024/03/27 00:15:04;;;;;;;1.90;1.50;;;;;;;13.33;50.65;101537.45;107151;1260;25464;-55
2024/03/27 00:17:31;;;;;;;1.60;1.50;;;;;;;13.32;50.70;101540.05;107088;1254;25564;-55
2024/03/27 00:19:59;;;;;;;2.40;1.80;;;;;;;13.31;50.60;101549.85;106898;1259;25405;-55
2024/03/27 00:22:25;;;;;;;3.20;2.00;;;;;;;13.29;50.60;101543.61;106320;1256;1003924;-55
2024/03/27 00:24:52;;;;;;;2.70;2.10;;;;;;;13.26;50.42;101540.88;107106;1253;23924;-55
2024/03/27 00:27:19;;;;;;;2.70;1.90;;;;;;;13.15;50.21;101535.38;107136;1257;25375;-55
2024/03/27 00:29:46;;;;;;;2.30;2.10;;;;;;;12.95;50.64;101535.01;107129;1256;25368;-55
2024/03/27 00:32:14;;;;;;;4.20;2.40;;;;;;;12.80;51.40;101533.57;106859;1256;25334;-55
2024/03/27 00:34:41;;;;;;;3.80;2.20;;;;;;;12.72;51.93;101533.70;107062;1256;25430;-55
2024/03/27 00:37:08;;;;;;;3.30;2.10;;;;;;;12.73;52.00;101534.91;107039;1254;25379;-55
2024/03/27 00:39:35;;;;;;;4.10;2.00;;;;;;;12.75;52.04;101535.23;107186;1254;25362;-55
2024/03/27 00:42:04;;;;;;;2.40;2.20;;;;;;;12.76;51.92;101533.11;106377;1263;1003767;-55
2024/03/27 00:44:31;;;;;;;2.90;1.80;;;;;;;12.77;51.63;101531.88;106814;1258;22528;-55
2024/03/27 00:46:58;;;;;;;2.50;2.00;;;;;;;12.77;51.11;101530.14;106858;1256;25334;-55
2024/03/27 00:49:24;;;;;;;3.00;2.20;;;;;;;12.74;50.70;101528.45;107073;1257;25338;-55
2024/03/27 00:51:51;;;;;;;3.90;2.50;;;;;;;12.70;50.87;101532.02;106873;1259;25424;-55
2024/03/27 00:54:20;;;;;;;3.90;2.30;;;;;;;12.62;50.97;101531.45;107108;1255;25347;-56
2024/03/27 00:56:47;;;;;;;2.20;2.00;;;;;;;12.57;51.00;101534.33;107063;1256;25385;-56
2024/03/27 00:59:14;;;;;;;3.70;2.80;;;;;;;12.56;51.06;101528.25;106858;1266;25378;-57
2024/03/27 01:01:41;;;;;;;2.30;2.00;;;;;;;12.56;51.19;101526.70;107073;1254;24506;-55
2024/03/27 01:04:08;;;;;;;2.50;2.30;;;;;;;12.57;51.28;101523.04;107098;1266;25376;-55
2024/03/27 01:06:35;;;;;;;3.10;2.20;;;;;;;12.56;51.28;101520.77;106889;1259;25379;-55
2024/03/27 01:09:02;;;;;;;2.30;2.10;;;;;;;12.57;51.12;101525.10;106039;1259;1003694;-55
2024/03/27 01:11:30;;;;;;;4.30;2.20;;;;;;;12.56;51.04;101529.13;107177;1257;25375;-55
2024/03/27 01:13:58;;;;;;;3.50;2.20;;;;;;;12.55;51.04;101525.14;107194;1260;25580;-55
2024/03/27 01:16:27;;;;;;;3.90;2.40;;;;;;;12.55;50.96;101525.83;107112;1257;25354;-55
2024/03/27 01:18:54;;;;;;;2.80;2.30;;;;;;;12.54;51.13;101524.13;106241;1267;1003791;-55
2024/03/27 01:21:21;;;;;;;2.50;2.20;;;;;;;12.53;51.16;101522.57;107093;1263;25349;-55
2024/03/27 01:23:48;;;;;;;3.60;2.30;;;;;;;12.51;51.10;101525.36;107103;1254;25488;-55
2024/03/27 01:26:15;;;;;;;2.60;2.20;;;;;;;12.50;51.20;101525.05;106846;1254;25382;-56
2024/03/27 01:28:42;;;;;;;2.10;1.90;;;;;;;12.50;51.19;101527.33;107125;1253;25402;-55
2024/03/27 01:31:09;;;;;;;3.10;2.20;;;;;;;12.48;51.43;101524.40;107245;1256;25366;-55
2024/03/27 01:33:36;;;;;;;3.00;2.20;;;;;;;12.47;51.53;101519.37;106319;1255;1003842;-55
2024/03/27 01:36:04;;;;;;;2.40;1.70;;;;;;;12.46;51.68;101518.17;106822;1272;25354;-55
2024/03/27 01:38:31;;;;;;;2.60;2.20;;;;;;;12.46;51.81;101516.27;106854;1259;25381;-55
2024/03/27 01:40:57;;;;;;;3.70;2.20;;;;;;;12.45;51.82;101509.30;107087;1257;25497;-55
2024/03/27 01:43:24;;;;;;;3.40;2.00;;;;;;;12.45;51.76;101512.09;107111;1253;25529;-55
2024/03/27 01:45:51;;;;;;;2.50;1.80;;;;;;;12.45;51.65;101525.48;107108;1256;25493;-55
2024/03/27 01:48:18;;;;;;;2.10;1.80;;;;;;;12.42;51.44;101526.58;107094;1257;25521;-55
2024/03/27 01:50:46;;;;;;;4.00;2.20;;;;;;;12.40;51.50;101521.75;107089;1253;25404;-55
2024/03/27 01:53:13;;;;;;;4.40;2.40;;;;;;;12.39;51.69;101520.55;106849;1266;25431;-55
2024/03/27 01:55:40;;;;;;;7.10;2.80;;;;;;;12.37;51.71;101520.77;106864;1258;25366;-55
2024/03/27 01:58:09;;;;;;;8.70;3.90;;;;;;;12.34;51.70;101519.07;107028;1257;25375;-55
2024/03/27 02:00:36;;;;;;;7.50;3.60;;;;;;;12.31;51.80;101529.23;106889;1256;25376;-55
2024/03/27 02:03:04;;;;;;;7.60;3.40;;;;;;;12.28;51.99;101534.14;107130;1263;25459;-55
2024/03/27 02:05:31;;;;;;;5.80;3.40;;;;;;;12.27;52.15;101527.04;107094;1254;23928;-55
2024/03/27 02:08:00;;;;;;;7.80;3.70;;;;;;;12.26;52.30;101517.98;106340;1254;1002872;-55
2024/03/27 02:10:26;;;;;;;15.50;5.80;;;;;;;12.25;52.39;101514.88;106821;1258;25497;-55
2024/03/27 02:12:53;;;;;;;13.30;6.10;;;;;;;12.23;52.27;101523.27;107099;1257;25376;-55
2024/03/27 02:15:20;;;;;;;12.60;6.50;;;;;;;12.21;52.12;101531.46;106885;1256;25375;-55
2024/03/27 02:17:47;;;;;;;8.10;4.10;;;;;;;12.20;52.18;101530.08;107156;1257;25487;-55
2024/03/27 02:20:14;;;;;;;9.40;4.00;;;;;;;12.19;52.32;101530.28;106308;1257;1003073;-55
2024/03/27 02:22:41;;;;;;;9.00;4.60;;;;;;;12.18;52.46;101528.56;107157;1264;25375;-55
2024/03/27 02:25:17;;;;;;;7.50;4.70;;;;;;;12.16;52.65;101528.23;106962;1261;24425;-55
2024/03/27 02:27:45;;;;;;;11.80;6.20;;;;;;;12.16;52.84;101531.36;107103;1255;25351;-54
2024/03/27 02:30:12;;;;;;;11.50;7.40;;;;;;;12.15;52.72;101529.99;106881;1258;25497;-54
2024/03/27 02:32:39;;;;;;;9.70;6.90;;;;;;;12.15;52.64;101534.34;107011;1259;25369;-55
2024/03/27 02:35:09;;;;;;;8.80;5.90;;;;;;;12.13;52.59;101536.29;107068;1254;25375;-55
2024/03/27 02:37:35;;;;;;;5.80;3.80;;;;;;;12.17;52.57;101530.30;106943;1259;25385;-55
2024/03/27 02:40:02;;;;;;;7.50;4.70;;;;;;;12.17;52.76;101535.02;107053;1257;25386;-56
2024/03/27 02:42:30;;;;;;;6.00;4.80;;;;;;;12.17;52.75;101536.92;106874;1254;25359;-55
2024/03/27 02:44:57;;;;;;;8.50;4.60;;;;;;;12.16;52.71;101536.23;106649;1259;25561;-56
2024/03/27 02:47:24;;;;;;;7.70;3.50;;;;;;;12.16;52.67;101525.27;106904;1267;25834;-54
2024/03/27 02:49:51;;;;;;;3.40;2.30;;;;;;;12.16;52.75;101504.94;107065;1263;25424;-55
2024/03/27 02:52:18;;;;;;;3.00;1.90;;;;;;;12.15;53.09;101499.02;107108;1251;25347;-54
2024/03/27 02:54:45;;;;;;;4.10;2.00;;;;;;;12.11;53.49;101509.88;107116;1250;25415;-54
2024/03/27 02:57:12;;;;;;;2.80;1.70;;;;;;;12.11;53.69;101511.11;107071;1257;25347;-55
2024/03/27 02:59:39;;;;;;;2.50;1.70;;;;;;;12.12;53.91;101517.34;107109;1254;25375;-55
2024/03/27 03:02:06;;;;;;;3.90;2.20;;;;;;;12.13;54.22;101511.41;107074;1263;22547;-55
2024/03/27 03:04:34;;;;;;;3.20;2.00;;;;;;;12.14;54.51;101515.91;107085;1251;25376;-55
2024/03/27 03:07:01;;;;;;;4.30;2.00;;;;;;;12.15;54.67;101530.69;106937;1259;25400;-55
2024/03/27 03:09:28;;;;;;;7.10;1.90;;;;;;;12.18;54.96;101528.20;106143;1254;1003013;-55
2024/03/27 03:11:54;;;;;;;4.00;1.90;;;;;;;12.24;55.11;101527.42;107117;1257;25398;-55
2024/03/27 03:14:21;;;;;;;3.60;2.30;;;;;;;12.30;54.96;101523.67;106841;1266;25497;-55
2024/03/27 03:16:49;;;;;;;2.70;2.10;;;;;;;12.32;54.90;101520.17;107202;1251;25046;-55
2024/03/27 03:19:16;;;;;;;5.40;2.10;;;;;;;12.32;54.84;101521.19;107125;1254;25424;-55
2024/03/27 03:21:43;;;;;;;2.80;1.70;;;;;;;12.34;54.99;101519.95;107074;1254;25347;-55
2024/03/27 03:24:10;;;;;;;3.30;2.20;;;;;;;12.36;55.03;101517.81;107041;1256;25347;-55
2024/03/27 03:26:38;;;;;;;4.10;2.30;;;;;;;12.40;54.90;101524.36;106839;1259;25350;-55
2024/03/27 03:29:05;;;;;;;2.90;2.30;;;;;;;12.41;54.80;101527.30;107142;1254;25375;-55
2024/03/27 03:31:32;;;;;;;4.30;2.30;;;;;;;12.40;54.73;101528.88;107074;1268;25338;-55
2024/03/27 03:33:59;;;;;;;2.30;2.00;;;;;;;12.39;54.70;101524.71;107114;1257;25406;-54
2024/03/27 03:36:26;;;;;;;4.50;2.60;;;;;;;12.41;54.67;101523.13;107125;1266;25487;-55
2024/03/27 03:38:53;;;;;;;3.00;2.10;;;;;;;12.43;54.69;101529.02;106281;1261;1003665;-55
2024/03/27 03:41:20;;;;;;;2.20;2.10;;;;;;;12.44;54.53;101529.52;107130;1258;23522;-55
2024/03/27 03:43:47;;;;;;;6.50;2.40;;;;;;;12.46;54.64;101533.14;107094;1254;25493;-55
2024/03/27 03:46:14;;;;;;;3.50;2.20;;;;;;;12.46;54.83;101519.02;107058;1260;25382;-55
2024/03/27 03:48:41;;;;;;;5.40;2.80;;;;;;;12.44;54.87;101512.11;106757;1260;22527;-55
2024/03/27 03:51:08;;;;;;;3.70;2.80;;;;;;;12.41;55.14;101512.16;106881;1259;22537;-55
2024/03/27 03:53:34;;;;;;;3.60;2.20;;;;;;;12.40;55.21;101515.30;106850;1260;25375;-55
2024/03/27 03:56:02;;;;;;;4.50;3.10;;;;;;;12.41;55.26;101516.17;107170;1257;25558;-55
2024/03/27 03:58:29;;;;;;;3.60;2.80;;;;;;;12.41;55.25;101524.70;107131;1257;25347;-55
2024/03/27 04:00:56;;;;;;;4.90;2.70;;;;;;;12.44;55.22;101525.50;107090;1254;25510;-55
2024/03/27 04:03:23;;;;;;;4.50;2.90;;;;;;;12.48;55.19;101528.39;107073;1263;25353;-55
2024/03/27 04:05:50;;;;;;;5.70;3.10;;;;;;;12.53;55.08;101531.44;106983;1267;25350;-55
2024/03/27 04:08:17;;;;;;;4.70;3.00;;;;;;;12.58;55.03;101533.61;107139;1254;25424;-55
2024/03/27 04:10:44;;;;;;;4.30;3.00;;;;;;;12.59;55.13;101539.49;107146;1257;23910;-55
2024/03/27 04:13:11;;;;;;;4.60;3.00;;;;;;;12.59;55.08;101540.71;107129;1256;25412;-55
2024/03/27 04:15:42;;;;;;;3.20;2.60;;;;;;;12.60;55.20;101538.80;107109;1255;25411;-55
2024/03/27 04:18:09;;;;;;;4.10;2.80;;;;;;;12.64;55.16;101537.86;107209;1264;23185;-55
2024/03/27 04:20:40;;;;;;;5.20;2.80;;;;;;;12.65;55.15;101544.97;106858;1274;25423;-55
2024/03/27 04:23:07;;;;;;;5.10;3.30;;;;;;;12.67;55.10;101547.75;107021;1257;25347;-56
2024/03/27 04:25:34;;;;;;;3.40;2.70;;;;;;;12.63;55.30;101553.02;107010;1254;25368;-56
2024/03/27 04:28:21;;;;;;;5.70;3.00;;;;;;;12.73;55.05;101551.80;106875;1256;22602;-55
2024/03/27 04:30:48;;;;;;;5.80;2.90;;;;;;;12.79;55.02;101560.05;106863;1269;25491;-55
2024/03/27 04:33:16;;;;;;;3.50;2.20;;;;;;;12.84;54.96;101562.39;106306;1260;1003748;-55
2024/03/27 04:35:43;;;;;;;3.80;2.30;;;;;;;12.90;54.96;101562.46;106867;1260;25417;-54
2024/03/27 04:38:10;;;;;;;3.80;2.40;;;;;;;12.97;54.97;101563.20;107041;1257;25338;-54
2024/03/27 04:40:36;;;;;;;5.40;3.20;;;;;;;13.04;54.94;101568.83;107152;1257;25415;-55
2024/03/27 04:43:03;;;;;;;4.40;3.00;;;;;;;13.10;54.83;101569.41;107067;1254;25372;-55
2024/03/27 04:45:30;;;;;;;3.80;2.70;;;;;;;13.15;54.75;101566.20;107188;1257;25405;-55
2024/03/27 04:47:57;;;;;;;6.10;3.20;;;;;;;13.19;54.64;101568.91;107070;1254;25487;-55
2024/03/27 04:50:25;;;;;;;4.70;3.00;;;;;;;13.23;54.69;101564.81;106992;1257;25418;-55
2024/03/27 04:52:52;;;;;;;2.60;2.40;;;;;;;13.28;54.58;101570.28;107062;1256;26409;-55
2024/03/27 04:55:19;;;;;;;4.90;3.20;;;;;;;13.33;54.52;101573.66;107184;1255;25497;-55
2024/03/27 04:57:46;;;;;;;4.40;2.90;;;;;;;13.40;54.39;101571.97;107153;1263;25365;-55
2024/03/27 05:00:13;;;;;;;4.50;2.70;;;;;;;13.44;54.34;101575.02;106841;1266;22528;-55
2024/03/27 05:02:40;;;;;;;4.80;2.90;;;;;;;13.46;54.23;101568.70;107073;1254;25379;-54
2024/03/27 05:05:08;;;;;;;4.80;2.40;;;;;;;13.47;54.21;101569.90;107128;1256;26995;-55
2024/03/27 05:07:35;;;;;;;4.20;2.50;;;;;;;13.44;54.28;101569.95;107107;1257;25500;-55
2024/03/27 05:10:02;;;;;;;3.70;2.40;;;;;;;13.41;54.50;101566.71;107116;1266;25351;-55
2024/03/27 05:12:29;;;;;;;3.20;2.40;;;;;;;13.42;54.64;101571.22;106942;1257;25405;-56
2024/03/27 05:14:57;;;;;;;2.50;2.20;;;;;;;13.48;54.56;101576.16;106928;1255;24240;-55
2024/03/27 05:17:24;;;;;;;3.80;3.00;;;;;;;13.54;54.50;101574.11;106659;1259;25373;-56
2024/03/27 05:19:54;;;;;;;2.80;2.20;;;;;;;13.63;54.46;101579.33;106319;1257;1002908;-55
2024/03/27 05:22:27;;;;;;;2.80;2.20;;;;;;;13.74;54.34;101582.58;107101;1257;25365;-55
2024/03/27 05:24:54;;;;;;;2.70;2.40;;;;;;;13.86;54.08;101579.67;107122;1253;25350;-54
2024/03/27 05:27:21;;;;;;;4.80;2.30;;;;;;;13.93;53.98;101573.44;107110;1251;24254;-54
2024/03/27 05:29:50;;;;;;;6.10;2.70;;;;;;;13.95;54.01;101576.70;106895;1267;25500;-55
2024/03/27 05:32:17;;;;;;;3.60;2.50;;;;;;;13.99;53.95;101584.63;106082;1257;1002886;-55
2024/03/27 05:34:44;;;;;;;3.90;2.10;;;;;;;14.09;53.55;101579.15;106748;1265;23074;-56
2024/03/27 05:37:10;;;;;;;3.40;2.40;;;;;;;14.15;53.28;101577.45;106789;1258;22531;-55
2024/03/27 05:39:37;;;;;;;3.30;2.00;;;;;;;14.21;53.15;101577.48;106320;1254;1003134;-55
2024/03/27 05:42:04;;;;;;;2.70;2.20;;;;;;;14.25;53.07;101579.30;107084;1257;25340;-55
2024/03/27 05:44:31;;;;;;;3.00;2.10;;;;;;;14.26;53.02;101584.51;107129;1266;25343;-55
2024/03/27 05:46:58;;;;;;;4.70;2.60;;;;;;;14.25;53.02;101591.70;107079;1256;25497;-55
2024/03/27 05:49:29;;;;;;;3.00;2.20;;;;;;;14.26;53.09;101591.52;107129;1257;25372;-55
2024/03/27 05:51:56;;;;;;;6.70;2.10;;;;;;;14.30;52.97;101596.48;106929;1259;23904;-55
2024/03/27 05:54:23;;;;;;;5.00;2.20;;;;;;;14.36;52.62;101596.52;106989;1257;25379;-55
2024/03/27 05:56:50;;;;;;;3.80;1.90;;;;;;;14.44;52.41;101599.29;106602;1262;25561;-55
2024/03/27 05:59:17;;;;;;;3.20;2.10;;;;;;;14.55;52.30;101607.05;106931;1257;25375;-55
2024/03/27 06:01:44;;;;;;;2.10;1.70;;;;;;;14.68;51.84;101603.41;106819;1259;25493;-55
2024/03/27 06:04:11;;;;;;;4.30;1.90;;;;;;;14.80;51.51;101599.96;107145;1257;25366;-55
2024/03/27 06:06:38;;;;;;;2.10;1.50;;;;;;;14.91;51.15;101602.49;106869;1270;25366;-55
2024/03/27 06:09:05;;;;;;;2.00;1.60;;;;;;;15.01;50.97;101612.17;107102;1266;25347;-55
2024/03/27 06:11:32;;;;;;;3.40;2.00;;;;;;;15.12;50.55;101613.27;106991;1267;25337;-55
2024/03/27 06:13:59;;;;;;;3.00;1.80;;;;;;;15.19;50.20;101601.55;107129;1267;25491;-56
2024/03/27 06:16:26;;;;;;;2.40;1.60;;;;;;;15.27;50.26;101604.30;106941;1273;25338;-56
2024/03/27 06:18:54;;;;;;;2.80;1.50;;;;;;;15.37;50.19;101612.58;106900;1267;23909;-56
2024/03/27 06:21:21;;;;;;;4.80;2.30;;;;;;;15.50;49.98;101609.78;107108;1254;25350;-56
2024/03/27 06:23:49;;;;;;;5.20;1.80;;;;;;;15.61;49.91;101612.09;107061;1256;25456;-56
2024/03/27 06:26:16;;;;;;;1.90;1.70;;;;;;;15.76;49.70;101612.18;107185;1264;25340;-55
2024/03/27 06:28:43;;;;;;;2.00;1.40;;;;;;;15.96;49.43;101613.85;106921;1263;25428;-55
2024/03/27 06:31:10;;;;;;;2.10;1.80;;;;;;;16.15;49.17;101615.34;107165;1267;22660;-56
2024/03/27 06:33:37;;;;;;;3.80;1.60;;;;;;;16.37;48.87;101619.39;107106;1263;25375;-56
2024/03/27 06:36:05;;;;;;;2.30;1.20;;;;;;;16.50;48.28;101613.91;107041;1256;25497;-55
2024/03/27 06:38:33;;;;;;;3.30;1.50;;;;;;;16.56;47.76;101616.52;106845;1261;22761;-55
2024/03/27 06:41:00;;;;;;;2.80;1.40;;;;;;;16.63;47.86;101615.43;107126;1254;25350;-56
2024/03/27 06:43:27;;;;;;;1.80;1.20;;;;;;;16.73;47.54;101613.17;107199;1257;25372;-60
2024/03/27 06:45:55;;;;;;;5.90;1.70;;;;;;;16.84;47.32;101614.70;107024;1262;22538;-56
2024/03/27 06:48:22;;;;;;;3.20;1.60;;;;;;;16.95;46.87;101615.02;106762;1260;25389;-56
2024/03/27 06:50:52;;;;;;;1.90;1.40;;;;;;;17.01;46.47;101614.66;106800;1257;25421;-56
2024/03/27 06:53:19;;;;;;;1.70;1.60;;;;;;;16.99;46.20;101613.48;107021;1261;25447;-56
2024/03/27 06:55:46;;;;;;;7.60;1.50;;;;;;;16.95;46.10;101617.11;107052;1264;25372;-56
2024/03/27 06:58:13;;;;;;;2.30;1.50;;;;;;;16.91;46.53;101619.89;106865;1262;269423;-56
2024/03/27 07:00:41;;;;;;;3.10;1.60;;;;;;;16.92;46.53;101616.18;107143;1254;25505;-56
2024/03/27 07:03:08;;;;;;;1.50;1.40;;;;;;;16.91;46.70;101609.90;107035;1257;25335;-56
2024/03/27 07:05:35;;;;;;;1.50;1.40;;;;;;;16.90;46.54;101616.58;107055;1257;25347;-56
2024/03/27 07:08:03;;;;;;;2.90;1.60;;;;;;;16.85;46.57;101614.85;107144;1268;25383;-56
2024/03/27 07:10:30;;;;;;;2.70;1.40;;;;;;;16.78;46.81;101619.80;107205;1267;22622;-56
2024/03/27 07:12:57;;;;;;;2.70;1.60;;;;;;;16.73;46.93;101622.10;107130;1267;23888;-56
2024/03/27 07:15:24;;;;;;;2.00;1.70;;;;;;;16.66;47.13;101621.42;106815;1267;25493;-56
2024/03/27 07:17:51;;;;;;;2.70;1.60;;;;;;;16.60;47.28;101624.44;106840;1267;25375;-56
2024/03/27 07:20:18;;;;;;;2.20;1.60;;;;;;;16.56;47.44;101627.21;107054;1267;23354;-56
2024/03/27 07:22:45;;;;;;;1.70;1.50;;;;;;;16.57;47.50;101632.64;107116;1266;22981;-55
2024/03/27 07:25:12;;;;;;;1.90;1.50;;;;;;;16.60;47.68;101635.15;107204;1267;25405;-55
2024/03/27 07:27:39;;;;;;;3.20;1.40;;;;;;;16.68;47.74;101638.55;107319;1267;25517;-55
2024/03/27 07:30:07;;;;;;;2.20;1.40;;;;;;;16.80;47.65;101644.64;107164;1267;24203;-55
2024/03/27 07:32:38;;;;;;;3.20;1.80;;;;;;;16.90;47.30;101638.16;106921;1267;25443;-55
2024/03/27 07:35:06;;;;;;;3.60;1.60;;;;;;;16.92;47.10;101637.36;107023;1273;25545;-55
2024/03/27 07:37:33;;;;;;;2.70;1.60;;;;;;;16.90;47.14;101642.54;107066;1270;25347;-56
2024/03/27 07:40:00;;;;;;;3.30;1.70;;;;;;;16.83;47.10;101644.86;106901;1270;23900;-55
2024/03/27 07:42:27;;;;;;;3.50;1.80;;;;;;;16.75;47.33;101640.05;106365;1266;1002659;-55
2024/03/27 07:44:54;;;;;;;2.30;1.60;;;;;;;16.67;47.64;101633.67;107148;1266;25539;-56
2024/03/27 07:47:21;;;;;;;3.60;1.80;;;;;;;16.59;47.80;101633.08;107050;1267;25377;-56
2024/03/27 07:49:48;;;;;;;2.20;1.40;;;;;;;16.50;48.04;101638.77;107126;1273;25325;-55
2024/03/27 07:52:15;;;;;;;3.70;1.50;;;;;;;16.45;48.32;101638.40;107082;1270;25331;-56
2024/03/27 07:54:42;;;;;;;4.90;1.90;;;;;;;16.38;48.48;101630.40;107143;1270;25409;-56
2024/03/27 07:57:10;;;;;;;2.50;1.90;;;;;;;16.30;48.71;101628.88;107102;1272;25334;-55
2024/03/27 07:59:38;;;;;;;1.70;1.60;;;;;;;16.24;48.92;101628.17;107108;1258;25363;-56
2024/03/27 08:02:06;;;;;;;1.80;1.70;;;;;;;16.22;49.13;101635.27;107094;1266;25415;-55
2024/03/27 08:04:34;;;;;;;2.90;2.20;;;;;;;16.22;49.07;101641.23;107003;1273;24373;-55
2024/03/27 08:07:01;;;;;;;2.80;2.30;;;;;;;16.21;49.02;101643.02;106947;1274;25338;-56
2024/03/27 08:09:28;;;;;;;4.50;2.50;;;;;;;16.18;48.86;101639.77;106911;1272;25372;-56
2024/03/27 08:11:55;;;;;;;4.20;2.30;;;;;;;16.16;48.87;101643.52;106898;1269;25496;-56
2024/03/27 08:14:22;;;;;;;2.80;2.50;;;;;;;16.13;48.87;101640.44;107074;1266;22525;-55
2024/03/27 08:16:49;;;;;;;2.80;2.30;;;;;;;16.12;48.92;101642.59;107000;1273;25347;-55
2024/03/27 08:19:16;;;;;;;4.60;2.90;;;;;;;16.10;48.91;101643.52;107110;1267;25338;-56
2024/03/27 08:21:44;;;;;;;2.50;2.30;;;;;;;16.09;48.89;101645.30;107189;1266;25363;-56
2024/03/27 08:24:11;;;;;;;4.00;3.00;;;;;;;16.08;48.92;101648.98;107057;1272;25375;-55
2024/03/27 08:26:38;;;;;;;3.20;2.90;;;;;;;16.10;48.83;101653.67;106841;1266;25439;-57
2024/03/27 08:29:05;;;;;;;4.00;3.20;;;;;;;16.10;48.81;101648.42;106942;1267;25347;-54
2024/03/27 08:31:32;;;;;;;3.80;3.30;;;;;;;16.09;48.85;101639.34;106762;1267;25328;-56
2024/03/27 08:33:59;;;;;;;3.60;2.80;;;;;;;16.11;48.85;101640.34;107088;1267;24375;-55
2024/03/27 08:36:34;;;;;;;4.20;3.30;;;;;;;16.11;48.91;101645.07;107122;1266;25363;-55
2024/03/27 08:39:09;;;;;;;3.70;3.10;;;;;;;16.13;49.01;101646.75;107067;1267;25335;-55
2024/03/27 08:41:37;;;;;;;3.80;3.30;;;;;;;16.15;48.88;101647.20;107062;1270;22580;-55
2024/03/27 08:44:04;;;;;;;3.80;3.30;;;;;;;16.16;48.80;101640.52;107035;1251;25561;-55
2024/03/27 08:46:31;;;;;;;4.70;3.30;;;;;;;16.16;48.73;101641.23;106907;1267;24370;-55
2024/03/27 08:48:58;;;;;;;3.50;3.10;;;;;;;16.17;48.76;101641.36;107199;1268;25402;-54
2024/03/27 08:51:26;;;;;;;6.40;3.60;;;;;;;16.18;48.80;101637.51;107187;1266;25448;-55
2024/03/27 08:53:53;;;;;;;5.00;3.40;;;;;;;16.18;48.81;101636.79;107101;1267;22523;-55
2024/03/27 08:56:23;;;;;;;4.30;3.70;;;;;;;16.18;48.89;101632.95;107060;1267;25608;-55
2024/03/27 08:58:50;;;;;;;4.00;3.30;;;;;;;16.18;48.86;101629.42;107053;1273;25404;-55
2024/03/27 09:01:18;;;;;;;3.80;3.40;;;;;;;16.19;48.94;101627.30;107192;1260;25382;-55
2024/03/27 09:03:46;;;;;;;4.60;3.60;;;;;;;16.21;48.88;101631.64;107120;1267;25394;-55
2024/03/27 09:06:13;;;;;;;4.30;3.40;;;;;;;16.20;48.84;101632.17;107072;1266;25378;-55
2024/03/27 09:08:40;;;;;;;4.00;3.50;;;;;;;16.18;48.95;101639.60;107063;1269;25440;-55
2024/03/27 09:11:08;;;;;;;5.10;3.90;;;;;;;16.17;48.98;101639.97;107089;1269;25535;-55
2024/03/27 09:13:36;;;;;;;4.70;4.00;;;;;;;16.16;49.00;101640.35;107070;1267;24452;-56
2024/03/27 09:16:03;;;;;;;3.90;3.50;;;;;;;16.17;49.06;101640.51;106866;1267;25396;-56
2024/03/27 09:18:31;;;;;;;4.10;3.40;;;;;;;16.16;49.08;101638.77;107134;1266;22539;-55
2024/03/27 09:21:00;;;;;;;6.20;3.80;;;;;;;16.14;49.15;101635.35;106873;1266;25491;-55
2024/03/27 09:23:28;;;;;;;5.00;3.90;;;;;;;16.12;49.22;101629.11;107070;1266;26302;-55
2024/03/27 09:25:56;;;;;;;4.50;3.50;;;;;;;16.09;49.26;101626.37;107092;1274;24211;-55
2024/03/27 09:28:24;;;;;;;4.40;3.90;;;;;;;16.09;49.34;101627.44;107092;1267;25347;-55
2024/03/27 09:30:51;;;;;;;4.30;3.90;;;;;;;16.09;49.25;101628.48;106872;1273;25521;-55
2024/03/27 09:33:19;;;;;;;3.90;3.40;;;;;;;16.07;49.26;101624.17;107098;1273;25420;-55
2024/03/27 09:35:47;;;;;;;4.80;3.40;;;;;;;16.04;49.32;101629.16;106835;1274;25496;-55
2024/03/27 09:38:14;;;;;;;4.10;3.70;;;;;;;16.03;49.57;101636.55;107067;1257;25383;-55
2024/03/27 09:40:46;;;;;;;4.10;3.20;;;;;;;16.04;49.52;101633.04;107179;1271;25497;-55
2024/03/27 09:43:15;;;;;;;3.70;3.30;;;;;;;16.05;49.43;101634.04;107037;1270;23889;-55
2024/03/27 09:45:45;;;;;;;5.00;3.90;;;;;;;16.06;49.54;101640.30;106825;1269;22514;-55
2024/03/27 09:48:13;;;;;;;3.80;3.40;;;;;;;16.06;49.59;101632.44;107071;1262;25378;-55
2024/03/27 09:50:40;;;;;;;3.90;3.20;;;;;;;16.07;49.48;101629.44;106832;1267;25399;-55
2024/03/27 09:53:07;;;;;;;3.90;3.40;;;;;;;16.08;49.32;101633.59;106902;1273;22531;-55
2024/03/27 09:55:35;;;;;;;3.60;3.20;;;;;;;16.08;49.40;101637.29;106865;1267;25534;-55
2024/03/27 09:58:06;;;;;;;4.20;3.50;;;;;;;16.06;49.48;101637.85;106802;1264;22536;-55
2024/03/27 10:00:34;;;;;;;5.40;3.30;;;;;;;16.05;49.50;101636.64;107125;1263;24261;-55
2024/03/27 10:03:01;;;;;;;4.00;3.60;;;;;;;16.05;49.55;101632.63;107155;1267;25409;-55
2024/03/27 10:05:28;;;;;;;4.00;3.60;;;;;;;16.04;49.66;101637.73;106853;1270;24224;-56
2024/03/27 10:07:55;;;;;;;3.40;3.10;;;;;;;16.06;49.70;101636.80;107090;1270;22646;-55
2024/03/27 10:10:23;;;;;;;3.90;2.80;;;;;;;16.09;49.75;101638.48;107076;1266;25484;-55
2024/03/27 10:12:51;;;;;;;4.20;3.10;;;;;;;16.12;49.71;101634.71;106862;1253;25392;-55
2024/03/27 10:15:18;;;;;;;3.80;3.20;;;;;;;16.15;49.69;101635.48;106084;1267;1003698;-55
2024/03/27 10:17:46;;;;;;;5.10;3.40;;;;;;;16.18;49.65;101637.66;106869;1272;24390;-55
2024/03/27 10:20:14;;;;;;;5.10;3.20;;;;;;;16.23;49.60;101644.70;107125;1260;25561;-55
2024/03/27 10:22:41;;;;;;;4.40;3.00;;;;;;;16.27;49.60;101645.77;107065;1274;24206;-55
2024/03/27 10:25:08;;;;;;;4.00;3.00;;;;;;;16.33;49.45;101641.59;106971;1267;25495;-55
2024/03/27 10:27:36;;;;;;;4.60;3.30;;;;;;;16.37;49.33;101643.03;106843;1270;25329;-56
2024/03/27 10:30:10;;;;;;;4.30;3.30;;;;;;;16.40;49.26;101643.81;107208;1266;25487;-56
2024/03/27 10:32:38;;;;;;;5.20;3.30;;;;;;;16.43;49.19;101649.48;107174;1268;23441;-56
2024/03/27 10:35:06;;;;;;;4.50;3.40;;;;;;;16.46;49.15;101648.86;106906;1273;22531;-55
2024/03/27 10:37:34;;;;;;;5.30;3.60;;;;;;;16.48;49.15;101648.64;106801;1275;22529;-55
2024/03/27 10:40:02;;;;;;;3.60;2.80;;;;;;;16.51;49.21;101649.62;107205;1270;25423;-55
2024/03/27 10:42:29;;;;;;;5.10;3.10;;;;;;;16.55;49.12;101647.55;106831;1273;24393;-55
2024/03/27 10:44:58;;;;;;;4.10;3.10;;;;;;;16.59;49.07;101648.83;107112;1270;25411;-55
2024/03/27 10:47:31;;;;;;;4.20;3.30;;;;;;;16.63;49.03;101646.27;106733;1274;25236;-55
2024/03/27 10:50:00;;;;;;;3.40;2.70;;;;;;;16.68;48.90;101644.68;107139;1267;25334;-55
2024/03/27 10:52:27;;;;;;;7.00;3.50;;;;;;;16.73;48.84;101648.02;106899;1275;25402;-55
2024/03/27 10:54:54;;;;;;;6.10;3.20;;;;;;;16.75;48.71;101647.24;106825;1273;25360;-55
2024/03/27 10:57:22;;;;;;;4.10;3.30;;;;;;;16.76;48.72;101648.10;106777;1271;25360;-55
2024/03/27 10:59:50;;;;;;;6.80;2.90;;;;;;;16.78;48.76;101649.61;106049;1270;1005471;-55
2024/03/27 11:02:18;;;;;;;4.20;3.10;;;;;;;16.80;48.68;101648.84;106757;1270;25497;-55
2024/03/27 11:04:56;;;;;;;3.20;2.80;;;;;;;16.80;48.55;101642.34;106782;1270;24230;-55
2024/03/27 11:07:23;;;;;;;3.60;3.00;;;;;;;16.82;48.55;101639.30;106804;1269;25535;-55
2024/03/27 11:09:51;;;;;;;3.10;2.60;;;;;;;16.83;48.60;101638.05;106749;1270;25500;-56
2024/03/27 11:12:18;;;;;;;3.40;2.70;;;;;;;16.84;48.52;101636.95;106769;1271;22574;-55
2024/03/27 11:14:48;;;;;;;3.60;3.20;;;;;;;16.86;48.55;101636.89;106771;1270;25403;-55
2024/03/27 11:17:15;;;;;;;2.90;2.60;;;;;;;16.89;48.47;101636.78;106887;1272;22597;-55